Terminal Aerodrome Forecast
Issued by NWS

Home | Current Version | Previous Version | Graphics & Text | Print | Product List | Glossary On
Versions: 1 2 3 4 5 6 7 8 9 10 11 12 13 14
000
FTUS43 KGRB 202300
TAFCWA
TAF
KCWA 202325Z 2100/2124 21009KT P6SM SCT040 SCT060
     FM210300 18006KT P6SM SCT060
     FM210900 17005KT P6SM SCT035
      TEMPO 2109/2113 5SM BR BKN035
     FM211400 20010G18KT P6SM SCT040 SCT090
      AMD LTD TO CLD VIS AND WIND 2103/2111=

USA.gov is the U.S. government's official web portal to all federal, state and local government web resources and services.